createdAt,value
2023-02-02T02:07:46.548Z,45.81
2023-02-02T02:08:46.524Z,45.75
2023-02-02T02:09:46.488Z,47.15
2023-02-02T02:10:46.472Z,44.55
2023-02-02T02:11:46.425Z,45.85
2023-02-02T02:12:46.406Z,42.24
2023-02-02T02:13:46.388Z,45.52
2023-02-02T02:14:46.354Z,42.81
2023-02-02T02:15:46.644Z,46.22
2023-02-02T02:16:46.321Z,44.35
2023-02-02T02:17:46.259Z,47.44
2023-02-02T02:18:46.283Z,46.00
2023-02-02T02:19:46.212Z,46.55
2023-02-02T02:20:46.178Z,47.17
2023-02-02T02:21:46.146Z,46.45
2023-02-02T02:22:46.124Z,45.80
2023-02-02T02:23:46.090Z,48.01
2023-02-02T02:24:46.120Z,45.51
2023-02-02T02:25:46.022Z,48.81
2023-02-02T02:26:46.082Z,48.68
2023-02-02T02:27:45.958Z,48.39
2023-02-02T02:28:45.924Z,46.92
2023-02-02T02:29:45.896Z,45.99
2023-02-02T02:30:45.930Z,46.22
2023-02-02T02:31:45.931Z,46.53
2023-02-02T02:32:45.853Z,47.56
2023-02-02T02:33:46.639Z,47.32
2023-02-02T02:34:45.677Z,49.01
2023-02-02T02:35:45.645Z,48.50
2023-02-02T02:36:45.600Z,47.54
2023-02-02T02:37:45.560Z,48.30
2023-02-02T02:38:45.511Z,46.95
2023-02-02T02:39:45.473Z,45.95
2023-02-02T02:40:45.426Z,50.06
2023-02-02T02:41:45.365Z,49.57
2023-02-02T02:42:45.381Z,49.24
2023-02-02T02:43:45.261Z,49.98
2023-02-02T02:44:45.217Z,48.95
2023-02-02T02:45:45.183Z,46.06
2023-02-02T02:46:45.105Z,48.52
2023-02-02T02:47:45.060Z,47.09
2023-02-02T02:48:45.011Z,49.06
2023-02-02T02:49:44.948Z,49.06
2023-02-02T02:50:44.898Z,47.32
2023-02-02T02:51:44.849Z,51.25
2023-02-02T02:52:44.810Z,46.95
2023-02-02T02:53:44.730Z,49.79
2023-02-02T02:54:44.675Z,46.93
2023-02-02T02:55:44.617Z,48.79
2023-02-02T02:56:44.558Z,49.56
2023-02-02T02:57:44.499Z,51.96
2023-02-02T03:34:42.568Z,51.05
2023-02-02T03:35:42.527Z,49.41
2023-02-02T03:36:42.498Z,49.16
2023-02-02T03:37:42.463Z,49.83
2023-02-02T03:38:42.414Z,46.96
2023-02-02T03:39:42.387Z,49.55
2023-02-02T03:40:42.494Z,50.21
2023-02-02T03:41:42.360Z,46.69
2023-02-02T03:42:42.340Z,44.02
2023-02-02T03:43:42.442Z,48.56
2023-02-02T03:45:42.276Z,51.83
2023-02-02T03:46:42.287Z,45.96
2023-02-02T03:47:42.247Z,47.09
2023-02-02T03:48:42.213Z,48.49
2023-02-02T03:49:42.192Z,51.09
2023-02-02T03:50:42.247Z,49.40
2023-02-02T03:51:42.668Z,49.72
2023-02-02T03:52:42.143Z,42.87
2023-02-02T03:53:42.137Z,46.64
2023-02-02T03:54:42.151Z,45.29
2023-02-02T03:55:42.220Z,48.15
2023-02-02T03:56:42.108Z,50.32
2023-02-02T03:57:42.102Z,43.69
2023-02-02T03:58:42.075Z,48.45
2023-02-02T03:59:42.021Z,50.79
2023-02-02T04:00:41.995Z,47.17
2023-02-02T04:01:42.015Z,46.61
2023-02-02T04:02:41.979Z,47.99
2023-02-02T04:03:41.973Z,45.76
2023-02-02T04:04:41.967Z,46.77
2023-02-02T04:05:41.966Z,42.00
2023-02-02T04:06:41.965Z,45.80
2023-02-02T04:07:41.953Z,46.80
2023-02-02T04:08:41.945Z,48.73
2023-02-02T04:09:41.954Z,48.53
2023-02-02T04:10:42.007Z,44.00
2023-02-02T04:11:41.920Z,48.76
2023-02-02T04:12:41.912Z,43.83
2023-02-02T04:13:41.888Z,45.47
2023-02-02T04:14:41.879Z,48.99
2023-02-02T04:15:41.857Z,47.16
2023-02-02T04:16:41.880Z,46.07
2023-02-02T04:17:41.824Z,47.19
2023-02-02T04:18:41.796Z,46.40
2023-02-02T04:19:41.793Z,43.94
2023-02-02T04:20:41.760Z,47.29
2023-02-02T04:21:41.747Z,45.32
2023-02-02T04:22:41.705Z,46.59
2023-02-02T04:23:41.689Z,49.13
2023-02-02T04:24:41.675Z,46.45
2023-02-02T04:25:41.667Z,46.26
2023-02-02T04:26:41.716Z,47.82
2023-02-02T04:27:41.676Z,45.95
2023-02-02T04:28:41.649Z,44.54
2023-02-02T04:29:41.654Z,42.27
2023-02-02T04:30:41.684Z,44.70
2023-02-02T04:31:41.640Z,47.37
2023-02-02T04:32:41.597Z,46.39
2023-02-02T05:06:41.166Z,43.50
2023-02-02T05:07:41.157Z,42.38
2023-02-02T05:08:41.130Z,43.80
2023-02-02T05:09:41.093Z,42.03
2023-02-02T05:10:41.692Z,45.32
2023-02-02T05:11:41.055Z,45.36
2023-02-02T07:06:38.294Z,245.66
2023-02-02T07:11:40.758Z,249.14
2023-02-02T07:16:37.610Z,263.51
2023-02-02T07:17:37.591Z,248.28
2023-02-02T07:18:37.447Z,248.65
2023-02-02T07:19:37.426Z,246.34
2023-02-02T07:20:37.304Z,245.74
2023-02-02T07:21:37.218Z,249.13
2023-02-02T07:22:37.127Z,244.90
2023-02-02T07:23:37.111Z,247.29
2023-02-02T07:24:36.959Z,250.00
2023-02-02T07:25:36.891Z,248.35
2023-02-02T07:26:36.873Z,247.36
2023-02-02T07:27:36.712Z,248.44
2023-02-02T07:28:36.636Z,248.66
2023-02-02T07:29:36.560Z,247.80
2023-02-02T07:30:36.500Z,243.66
2023-02-02T07:31:37.041Z,246.31
2023-02-02T07:32:36.323Z,265.22
2023-02-02T07:33:36.223Z,235.45
2023-02-02T07:34:36.139Z,232.71
2023-02-02T07:35:36.057Z,248.63
2023-02-02T07:36:36.003Z,241.95
2023-02-02T07:37:37.518Z,247.90
2023-02-02T07:38:35.810Z,245.75
2023-02-02T07:39:35.719Z,245.11
2023-02-02T07:40:35.643Z,243.09
2023-02-02T07:41:35.554Z,242.76
2023-02-02T07:42:35.477Z,243.21
2023-02-02T07:43:35.427Z,243.96
2023-02-02T07:44:35.314Z,244.72
2023-02-02T07:45:35.234Z,246.46
2023-02-02T07:46:35.643Z,248.03
2023-02-02T07:47:35.089Z,249.36
2023-02-02T07:48:35.000Z,246.73
2023-02-02T07:49:34.923Z,249.86
2023-02-02T07:50:34.832Z,249.36
2023-02-02T07:51:35.375Z,247.95
2023-02-02T07:52:34.683Z,247.39
2023-02-02T07:53:34.603Z,247.94
2023-02-02T07:54:34.524Z,247.79
2023-02-02T11:17:25.787Z,164.04
2023-02-02T11:27:25.561Z,158.60
2023-02-02T11:28:25.550Z,158.16
2023-02-02T11:29:25.525Z,157.03
2023-02-02T11:30:25.832Z,157.28
2023-02-02T11:32:25.407Z,157.69
2023-02-02T11:33:25.361Z,155.57
2023-02-02T11:35:25.353Z,156.43
2023-02-02T11:36:25.244Z,155.96
2023-02-02T11:37:25.208Z,156.61
2023-02-02T11:38:25.197Z,154.13
2023-02-02T11:39:25.110Z,153.75
2023-02-02T11:40:25.419Z,153.83
2023-02-02T11:41:24.948Z,153.56
2023-02-02T11:42:24.858Z,153.85
2023-02-02T11:43:24.781Z,153.65
2023-02-02T11:44:24.711Z,151.68
2023-02-02T11:45:24.628Z,150.57
2023-02-02T11:46:24.890Z,150.24
2023-02-02T11:51:25.035Z,148.77
2023-02-02T11:53:25.005Z,145.94
2023-02-02T12:55:19.555Z,127.36
2023-02-02T13:00:19.106Z,127.95
2023-02-02T13:01:19.218Z,126.04
2023-02-02T13:02:19.047Z,127.25
2023-02-02T13:03:18.894Z,128.41
2023-02-02T13:04:18.824Z,127.74
2023-02-02T13:05:18.753Z,129.01
2023-02-02T13:06:18.680Z,128.21
2023-02-02T13:07:18.647Z,128.42
2023-02-02T13:08:18.527Z,127.97
2023-02-02T13:09:20.033Z,128.09
2023-02-02T13:10:18.391Z,127.22
2023-02-02T13:11:18.325Z,127.95
2023-02-02T13:12:18.320Z,126.50
2023-02-02T13:13:18.217Z,127.57
2023-02-02T13:14:18.137Z,125.93
2023-02-02T13:15:18.049Z,125.48
2023-02-02T13:16:18.021Z,126.85
2023-02-02T13:17:17.894Z,124.87
2023-02-02T13:18:17.831Z,124.06
2023-02-02T13:19:17.775Z,124.12
2023-02-02T13:20:17.698Z,123.52
2023-02-02T13:21:17.648Z,124.30
2023-02-02T13:22:17.575Z,123.81
2023-02-02T13:23:17.503Z,125.03
2023-02-02T13:24:17.440Z,125.06
2023-02-02T13:25:18.365Z,122.85
2023-02-02T13:26:17.363Z,123.83
2023-02-02T13:27:17.270Z,123.43
2023-02-02T13:28:17.178Z,123.01
2023-02-02T13:29:17.145Z,122.05
2023-02-02T13:30:17.046Z,121.37
2023-02-02T13:31:17.082Z,121.85
2023-02-02T13:32:16.913Z,121.16
2023-02-02T13:33:16.882Z,120.01
2023-02-02T13:34:16.783Z,119.65
2023-02-02T13:35:17.720Z,119.80
2023-02-02T13:36:16.625Z,120.09
2023-02-02T13:37:17.429Z,119.84
2023-02-02T13:38:16.481Z,120.32
2023-02-02T13:39:16.402Z,120.08
2023-02-02T13:40:16.296Z,118.35
2023-02-02T13:41:16.210Z,119.02
2023-02-02T13:42:16.130Z,117.87
2023-02-02T13:43:16.052Z,118.98
2023-02-02T13:44:16.012Z,119.54
2023-02-02T13:45:15.905Z,118.65
2023-02-02T13:46:16.030Z,117.96
2023-02-02T13:47:15.731Z,118.78
2023-02-02T13:48:15.639Z,116.58
2023-02-02T13:49:16.381Z,116.64
2023-02-02T13:50:15.468Z,115.52
2023-02-02T13:51:15.388Z,118.17
2023-02-02T13:52:15.299Z,117.07
2023-02-02T13:53:15.216Z,117.14
2023-02-02T13:54:15.138Z,115.75
2023-02-02T13:55:15.043Z,117.55
2023-02-02T13:56:15.200Z,115.79
2023-02-02T13:57:14.880Z,116.82
2023-02-02T13:58:14.792Z,115.64
2023-02-02T13:59:14.706Z,112.00
2023-02-02T14:00:14.628Z,112.89
2023-02-02T14:01:14.571Z,114.82
2023-02-02T14:02:14.529Z,114.79
2023-02-02T14:03:14.367Z,114.49
2023-02-02T14:04:14.287Z,114.39
2023-02-02T14:05:14.945Z,114.06
2023-02-02T14:06:14.159Z,114.24
2023-02-02T14:07:14.388Z,113.57
2023-02-02T14:08:14.042Z,111.66
2023-02-02T14:09:13.959Z,112.83
2023-02-02T14:10:13.933Z,112.53
2023-02-02T14:11:13.839Z,113.68
2023-02-02T14:12:13.785Z,113.31
2023-02-02T14:13:13.709Z,112.45
2023-02-02T14:14:13.714Z,114.20
2023-02-02T14:15:13.594Z,112.77
2023-02-02T14:16:13.552Z,111.88
2023-02-02T14:17:13.494Z,111.41
2023-02-02T14:18:13.422Z,111.97
2023-02-02T14:19:13.373Z,110.20
2023-02-02T14:20:13.310Z,109.61
2023-02-02T14:21:13.319Z,109.74
2023-02-02T14:22:13.218Z,110.41
2023-02-02T14:23:13.154Z,109.31
2023-02-02T14:24:13.104Z,108.56
2023-02-02T14:25:13.050Z,111.53
2023-02-02T14:26:13.153Z,105.87
2023-02-02T14:27:13.171Z,106.51
2023-02-02T14:28:13.022Z,109.89
2023-02-02T14:29:12.856Z,109.72
2023-02-02T14:30:12.820Z,108.38
2023-02-02T14:31:12.963Z,109.83
2023-02-02T14:33:12.692Z,109.26
2023-02-02T14:34:12.630Z,107.42
2023-02-02T17:19:09.101Z,116.36
2023-02-02T17:20:09.017Z,114.57
2023-02-02T17:21:08.975Z,115.33
2023-02-02T17:22:08.919Z,116.55
2023-02-02T17:23:08.908Z,116.44
2023-02-02T17:24:08.890Z,115.87
2023-02-02T17:25:08.869Z,112.87
2023-02-02T17:48:08.245Z,105.92
2023-02-02T17:49:08.110Z,108.86
2023-02-02T17:50:08.071Z,107.84
2023-02-02T17:51:08.063Z,107.16
2023-02-02T17:52:08.022Z,106.37
2023-02-02T17:53:07.992Z,107.11
2023-02-02T17:54:07.948Z,104.88
2023-02-02T17:55:07.933Z,106.68
2023-02-02T17:56:07.928Z,105.66
2023-02-02T17:57:07.925Z,102.49
2023-02-02T17:58:07.915Z,106.56
2023-02-02T17:59:07.882Z,103.92
2023-02-02T18:00:07.849Z,101.92
2023-02-02T18:01:08.494Z,103.42
2023-02-02T18:02:07.827Z,105.11
2023-02-02T18:03:07.856Z,103.87
2023-02-02T18:04:07.733Z,103.85
2023-02-02T18:05:07.691Z,101.19
2023-02-02T18:06:07.695Z,102.25
2023-02-02T18:07:07.667Z,103.28
2023-02-02T18:08:07.657Z,99.46
2023-02-02T18:09:07.643Z,100.35
2023-02-02T18:10:07.611Z,100.41
2023-02-02T18:11:07.577Z,103.51
2023-02-02T18:12:07.537Z,100.32
2023-02-02T18:13:07.488Z,102.96
2023-02-02T18:14:07.416Z,103.38
2023-02-02T18:15:07.384Z,98.74
2023-02-02T18:16:07.402Z,99.99
2023-02-02T18:17:07.341Z,98.23
2023-02-02T18:18:07.284Z,99.49
2023-02-02T18:19:07.317Z,99.91
2023-02-02T18:20:07.200Z,96.81
2023-02-02T18:21:07.124Z,99.79
2023-02-02T18:22:07.061Z,98.76
2023-02-02T18:23:07.019Z,98.56
2023-02-02T18:24:06.994Z,98.15
2023-02-02T18:25:06.947Z,96.14
2023-02-02T18:26:06.894Z,97.99
2023-02-02T18:27:06.863Z,95.01
2023-02-02T18:28:06.815Z,97.12
2023-02-02T18:29:06.776Z,96.01
2023-02-02T18:30:06.739Z,94.99
2023-02-02T18:31:06.779Z,93.77
2023-02-02T18:32:06.708Z,95.34
2023-02-02T18:33:06.658Z,96.16
2023-02-02T18:34:06.744Z,94.25
2023-02-02T18:35:06.614Z,92.40
2023-02-02T18:36:06.575Z,92.67
2023-02-02T18:37:06.534Z,95.41
2023-02-02T18:38:06.476Z,92.34
2023-02-02T18:39:06.426Z,94.39
2023-02-02T18:40:07.838Z,94.11
2023-02-02T18:41:06.295Z,93.57
2023-02-02T18:42:06.225Z,93.68
2023-02-02T18:43:06.163Z,91.87
2023-02-02T18:44:06.149Z,92.09
2023-02-02T18:45:06.076Z,92.82
2023-02-02T18:46:06.052Z,91.36
2023-02-02T18:47:06.009Z,90.83
2023-02-02T18:48:05.945Z,90.81
2023-02-02T18:49:05.885Z,89.92
2023-02-02T18:50:05.809Z,90.14
2023-02-02T18:51:05.750Z,89.96
2023-02-02T18:52:06.472Z,89.86
2023-02-02T18:53:05.691Z,89.04
2023-02-02T18:54:05.614Z,89.91
2023-02-02T18:55:05.556Z,89.39
2023-02-02T18:56:05.501Z,88.19
2023-02-02T18:57:05.434Z,88.32
2023-02-02T18:58:05.382Z,86.46
2023-02-02T18:59:05.296Z,87.90
2023-02-02T19:00:05.352Z,86.02
2023-02-02T19:01:07.296Z,87.45
2023-02-02T19:02:05.211Z,87.74
2023-02-02T19:03:05.068Z,88.14
2023-02-02T19:04:05.049Z,86.03
2023-02-02T19:05:04.951Z,86.71
2023-02-02T19:06:04.879Z,86.26
2023-02-02T19:07:04.808Z,84.37
2023-02-02T19:08:04.743Z,86.55
2023-02-02T19:09:04.669Z,84.13
2023-02-02T19:10:04.612Z,87.94
2023-02-02T19:11:04.535Z,83.10
2023-02-02T19:12:04.453Z,84.67
2023-02-02T19:13:04.390Z,85.52
2023-02-02T19:14:04.319Z,82.75
2023-02-02T19:15:04.248Z,85.37
2023-02-02T19:16:04.205Z,81.31
2023-02-02T19:17:05.108Z,81.48
2023-02-02T19:18:04.993Z,81.81
2023-02-02T19:19:03.950Z,81.69
2023-02-02T19:20:03.892Z,82.09
2023-02-02T19:21:03.805Z,82.23
2023-02-02T19:22:03.721Z,81.89
2023-02-02T19:23:03.644Z,82.93
2023-02-02T19:24:03.572Z,81.66
2023-02-02T19:25:03.500Z,81.91
2023-02-02T19:26:03.983Z,78.47
2023-02-02T21:05:56.599Z,50.88
2023-02-02T21:06:56.547Z,49.36
2023-02-02T21:07:56.476Z,49.31
2023-02-02T21:08:56.401Z,48.36
2023-02-02T21:09:56.351Z,50.12
2023-02-02T21:10:56.278Z,46.72
2023-02-02T21:11:56.206Z,49.64
2023-02-02T21:12:56.188Z,48.36
2023-02-02T21:13:56.072Z,49.37
2023-02-02T21:14:56.527Z,48.97
2023-02-02T21:15:55.940Z,48.99
2023-02-02T21:17:09.020Z,48.24
2023-02-02T21:17:56.809Z,48.45
2023-02-02T21:18:55.713Z,48.53
2023-02-02T21:19:55.657Z,48.32
2023-02-02T21:20:55.600Z,48.56
2023-02-02T21:21:55.509Z,48.91
2023-02-02T21:22:55.435Z,46.55
2023-02-02T21:23:55.382Z,45.61
2023-02-02T21:24:55.279Z,43.94
2023-02-02T21:25:55.213Z,46.04
2023-02-02T21:26:55.154Z,44.39
2023-02-02T21:27:55.075Z,44.10
2023-02-02T21:28:55.531Z,42.87
2023-02-02T21:29:54.935Z,43.48
2023-02-02T21:30:55.029Z,43.58
2023-02-02T21:31:54.910Z,40.62
2023-02-02T21:32:54.783Z,41.17
2023-02-02T21:33:54.656Z,42.47
2023-02-02T21:34:54.566Z,38.76
2023-02-02T21:35:54.505Z,39.92
2023-02-02T21:36:54.433Z,39.12
2023-02-02T21:37:54.363Z,38.93
2023-02-02T21:38:54.307Z,41.57
2023-02-02T21:39:55.020Z,39.65
2023-02-02T21:40:55.041Z,40.25
2023-02-02T21:41:54.097Z,38.80
2023-02-02T21:42:54.020Z,39.92
2023-02-02T21:43:53.945Z,38.38
2023-02-02T21:44:53.957Z,36.35
2023-02-02T21:45:53.907Z,37.25
2023-02-02T21:46:53.733Z,38.80
2023-02-02T21:47:53.651Z,35.63
2023-02-02T21:48:53.582Z,35.99
2023-02-02T21:49:53.500Z,34.73
2023-02-02T21:50:53.432Z,33.30
2023-02-02T22:36:50.692Z,28.07
2023-02-02T22:37:50.600Z,26.76
2023-02-02T22:38:50.543Z,28.35
2023-02-02T22:39:50.488Z,29.67
